Time;durP1;ratioP1;P1;durP2;ratioP2;P2;SDS_P1;SDS_P2;PMS_P1;PMS_P2;Temp;Humidity;BMP_temperature;BMP_pressure;BME280_temperature;BME280_humidity;BME280_pressure;Samples;Min_cycle;Max_cycle;Signal;HPM_P1;HPM_P2
2024/01/30 00:00:39;;;;;;;;;;;19.60;54.40;;;;;;5097263;28;19930;-65
2024/01/30 00:03:05;;;;;;;;;;;19.50;54.30;;;;;;5093515;28;20007;-65
2024/01/30 00:05:30;;;;;;;;;;;19.50;54.30;;;;;;5095991;28;20010;-65
2024/01/30 00:07:55;;;;;;;;;;;19.50;54.30;;;;;;5096755;28;19923;-65
2024/01/30 00:10:21;;;;;;;;;;;19.50;54.30;;;;;;5115528;28;19970;-65
2024/01/30 00:12:47;;;;;;;;;;;19.50;54.30;;;;;;5096800;28;20299;-65
2024/01/30 00:15:12;;;;;;;;;;;19.50;54.20;;;;;;5097156;28;19924;-65
2024/01/30 00:17:37;;;;;;;;;;;19.50;54.20;;;;;;5115623;28;19924;-65
2024/01/30 00:20:07;;;;;;;;;;;19.50;54.20;;;;;;5114160;28;19924;-65
2024/01/30 00:22:32;;;;;;;;;;;19.50;54.30;;;;;;5097965;28;19925;-65
2024/01/30 00:24:58;;;;;;;;;;;19.50;54.20;;;;;;5109786;28;19931;-65
2024/01/30 00:27:23;;;;;;;;;;;19.40;54.20;;;;;;5093950;28;19924;-65
2024/01/30 00:29:49;;;;;;;;;;;19.40;54.20;;;;;;5094747;28;19924;-65
2024/01/30 00:32:14;;;;;;;;;;;19.40;54.10;;;;;;5107183;28;20440;-65
2024/01/30 00:34:41;;;;;;;;;;;19.40;54.10;;;;;;5096103;28;19927;-65
2024/01/30 00:37:06;;;;;;;;;;;19.40;54.10;;;;;;5113841;28;19927;-65
2024/01/30 00:39:32;;;;;;;;;;;19.30;54.10;;;;;;5114764;28;20272;-65
2024/01/30 00:41:58;;;;;;;;;;;19.40;54.10;;;;;;5129649;27;19924;-65
2024/01/30 00:44:23;;;;;;;;;;;19.40;54.10;;;;;;5114706;28;19924;-65
2024/01/30 00:46:49;;;;;;;;;;;19.40;54.70;;;;;;5114851;28;20287;-65
2024/01/30 00:49:14;;;;;;;;;;;19.40;54.00;;;;;;5112706;28;19924;-65
2024/01/30 00:51:40;;;;;;;;;;;19.40;54.00;;;;;;5095076;28;19924;-65
2024/01/30 00:54:06;;;;;;;;;;;19.30;54.00;;;;;;5098779;28;19924;-65
2024/01/30 00:56:31;;;;;;;;;;;19.30;53.90;;;;;;5114709;28;19924;-65
2024/01/30 00:58:57;;;;;;;;;;;19.30;53.90;;;;;;5114496;28;19924;-65
2024/01/30 01:01:22;;;;;;;;;;;19.30;53.90;;;;;;5095416;28;19923;-65
2024/01/30 01:03:48;;;;;;;;;;;19.30;53.90;;;;;;5096242;28;19963;-65
2024/01/30 01:06:14;;;;;;;;;;;19.30;53.80;;;;;;5113651;28;19927;-65
2024/01/30 01:08:39;;;;;;;;;;;19.30;53.90;;;;;;5108886;28;20390;-65
2024/01/30 01:11:05;;;;;;;;;;;19.30;53.90;;;;;;5091788;28;20014;-65
2024/01/30 01:13:30;;;;;;;;;;;19.30;53.90;;;;;;5091858;28;20272;-65
2024/01/30 01:15:56;;;;;;;;;;;19.30;53.90;;;;;;5073160;28;19977;-65
2024/01/30 01:18:21;;;;;;;;;;;19.20;53.80;;;;;;5075606;28;20042;-65
2024/01/30 01:20:47;;;;;;;;;;;19.20;53.80;;;;;;5093910;28;19932;-65
2024/01/30 01:23:12;;;;;;;;;;;19.20;53.70;;;;;;5074779;28;19924;-65
2024/01/30 01:25:38;;;;;;;;;;;19.20;53.70;;;;;;5094227;28;20306;-65
2024/01/30 01:28:03;;;;;;;;;;;19.20;53.80;;;;;;5075277;28;20376;-65
2024/01/30 01:30:30;;;;;;;;;;;19.20;53.80;;;;;;5074822;28;19953;-65
2024/01/30 01:32:56;;;;;;;;;;;19.20;53.80;;;;;;5093364;28;19992;-65
2024/01/30 01:35:23;;;;;;;;;;;19.10;53.70;;;;;;5075476;28;19953;-65
2024/01/30 01:37:54;;;;;;;;;;;19.10;53.70;;;;;;5074302;28;20017;-65
2024/01/30 01:40:26;;;;;;;;;;;19.10;53.70;;;;;;5075333;28;20410;-65
2024/01/30 01:42:52;;;;;;;;;;;19.10;53.70;;;;;;5093411;28;19924;-65
2024/01/30 01:45:18;;;;;;;;;;;19.10;53.70;;;;;;5092976;28;19925;-65
2024/01/30 01:47:45;;;;;;;;;;;19.10;53.70;;;;;;5093631;28;20013;-65
2024/01/30 01:50:12;;;;;;;;;;;19.10;53.70;;;;;;5058440;28;19934;-65
2024/01/30 01:52:37;;;;;;;;;;;19.10;53.60;;;;;;5090898;28;19924;-65
2024/01/30 01:55:03;;;;;;;;;;;19.10;53.60;;;;;;5094202;28;20003;-65
2024/01/30 01:57:28;;;;;;;;;;;19.10;53.60;;;;;;5094573;28;19923;-65
2024/01/30 01:59:54;;;;;;;;;;;19.10;53.60;;;;;;5078153;28;19924;-65
2024/01/30 02:02:19;;;;;;;;;;;19.00;53.60;;;;;;5095024;28;19928;-65
2024/01/30 02:04:45;;;;;;;;;;;19.00;53.60;;;;;;5112261;28;20037;-65
2024/01/30 02:07:10;;;;;;;;;;;19.00;53.50;;;;;;5077981;28;20010;-65
2024/01/30 02:09:36;;;;;;;;;;;19.00;53.60;;;;;;5094246;28;19923;-65
2024/01/30 02:12:01;;;;;;;;;;;19.00;53.60;;;;;;5093411;28;19988;-65
2024/01/30 02:14:27;;;;;;;;;;;19.00;53.50;;;;;;5094612;28;19924;-65
2024/01/30 02:16:52;;;;;;;;;;;19.00;54.20;;;;;;5095039;28;19924;-65
2024/01/30 02:19:19;;;;;;;;;;;19.00;53.50;;;;;;5094531;28;20439;-65
2024/01/30 02:21:45;;;;;;;;;;;19.00;53.50;;;;;;5095347;28;19923;-65
2024/01/30 02:24:10;;;;;;;;;;;19.00;53.50;;;;;;5095218;28;20267;-65
2024/01/30 02:26:36;;;;;;;;;;;18.90;53.50;;;;;;5094390;28;19967;-65
2024/01/30 02:29:01;;;;;;;;;;;19.00;53.50;;;;;;5117046;28;19951;-65
2024/01/30 02:31:27;;;;;;;;;;;19.00;53.50;;;;;;5117358;28;19931;-65
2024/01/30 02:33:52;;;;;;;;;;;19.00;53.50;;;;;;5098356;28;19982;-65
2024/01/30 02:36:18;;;;;;;;;;;18.90;53.50;;;;;;5098653;28;19924;-65
2024/01/30 02:38:43;;;;;;;;;;;18.90;53.50;;;;;;5117369;28;19945;-65
2024/01/30 02:41:09;;;;;;;;;;;18.90;53.50;;;;;;5098338;28;19931;-65
2024/01/30 02:43:34;;;;;;;;;;;18.90;53.50;;;;;;5116348;28;19923;-65
2024/01/30 02:46:00;;;;;;;;;;;18.90;53.50;;;;;;5097733;28;20362;-65
2024/01/30 02:48:26;;;;;;;;;;;18.90;53.50;;;;;;5104411;28;19932;-65
2024/01/30 02:50:52;;;;;;;;;;;18.90;54.10;;;;;;5078291;28;19924;-65
2024/01/30 02:53:17;;;;;;;;;;;18.90;53.50;;;;;;5078355;28;19968;-65
2024/01/30 02:55:43;;;;;;;;;;;18.90;53.50;;;;;;5095834;28;20440;-65
2024/01/30 02:58:08;;;;;;;;;;;18.90;53.50;;;;;;5078446;28;19931;-65
2024/01/30 03:00:34;;;;;;;;;;;18.80;53.50;;;;;;5078638;28;20380;-65
2024/01/30 03:02:59;;;;;;;;;;;18.80;53.50;;;;;;5115645;28;19924;-65
2024/01/30 03:05:25;;;;;;;;;;;18.80;53.50;;;;;;5116522;28;19924;-65
2024/01/30 03:07:50;;;;;;;;;;;18.80;53.50;;;;;;5097440;28;20060;-65
2024/01/30 03:10:15;;;;;;;;;;;18.90;53.50;;;;;;5116484;28;19923;-65
2024/01/30 03:12:41;;;;;;;;;;;18.80;53.50;;;;;;5098749;28;19924;-65
2024/01/30 03:15:06;;;;;;;;;;;18.80;53.50;;;;;;5115485;28;20057;-65
2024/01/30 03:17:32;;;;;;;;;;;18.80;53.50;;;;;;5116503;28;19923;-65
2024/01/30 03:19:57;;;;;;;;;;;18.80;53.50;;;;;;5097962;28;19931;-65
2024/01/30 03:22:23;;;;;;;;;;;18.80;53.50;;;;;;5097499;28;20018;-65
2024/01/30 03:24:49;;;;;;;;;;;18.80;53.50;;;;;;5132638;27;19931;-65
2024/01/30 03:27:14;;;;;;;;;;;18.80;53.50;;;;;;5098104;28;19927;-65
2024/01/30 03:29:40;;;;;;;;;;;18.80;53.50;;;;;;5115471;28;20470;-65
2024/01/30 03:32:05;;;;;;;;;;;18.80;53.50;;;;;;5097346;28;19939;-65
2024/01/30 03:34:31;;;;;;;;;;;18.80;53.50;;;;;;5097945;28;20002;-65
2024/01/30 03:36:56;;;;;;;;;;;18.80;53.50;;;;;;5085128;28;19931;-65
2024/01/30 03:39:22;;;;;;;;;;;18.80;53.50;;;;;;5087562;28;20268;-65
2024/01/30 03:41:48;;;;;;;;;;;18.90;53.50;;;;;;5098139;28;19927;-65
2024/01/30 03:44:13;;;;;;;;;;;18.90;53.60;;;;;;5114956;28;19945;-65
2024/01/30 03:46:39;;;;;;;;;;;18.90;53.50;;;;;;5082401;28;19928;-65
2024/01/30 03:49:04;;;;;;;;;;;18.90;53.50;;;;;;5102884;28;19931;-65
2024/01/30 03:51:30;;;;;;;;;;;18.90;53.50;;;;;;5115288;28;19975;-65
2024/01/30 03:53:55;;;;;;;;;;;18.90;53.50;;;;;;5115793;28;19925;-65
2024/01/30 03:56:21;;;;;;;;;;;18.90;53.50;;;;;;5097494;28;19928;-65
2024/01/30 03:58:46;;;;;;;;;;;18.90;54.20;;;;;;5115211;28;19924;-65
2024/01/30 04:01:15;;;;;;;;;;;18.90;53.50;;;;;;5115743;28;20012;-65
2024/01/30 04:03:40;;;;;;;;;;;18.90;53.50;;;;;;5115943;28;19931;-65
2024/01/30 04:06:06;;;;;;;;;;;19.00;53.50;;;;;;5114638;28;19924;-65
2024/01/30 04:08:32;;;;;;;;;;;18.90;53.50;;;;;;5115455;28;19931;-65
2024/01/30 04:10:57;;;;;;;;;;;19.00;53.50;;;;;;5130827;27;19924;-65
2024/01/30 04:13:23;;;;;;;;;;;19.00;53.50;;;;;;5096777;28;19924;-65
2024/01/30 04:15:48;;;;;;;;;;;19.00;53.50;;;;;;5097125;28;19967;-65
2024/01/30 04:18:14;;;;;;;;;;;19.00;53.50;;;;;;5095291;28;19931;-65
2024/01/30 04:20:39;;;;;;;;;;;19.00;53.50;;;;;;5115290;28;19923;-65
2024/01/30 04:23:05;;;;;;;;;;;19.00;53.50;;;;;;5096728;28;20010;-65
2024/01/30 04:25:30;;;;;;;;;;;19.00;53.50;;;;;;5096202;28;19933;-65
2024/01/30 04:27:56;;;;;;;;;;;19.00;53.50;;;;;;5096845;28;19930;-65
2024/01/30 04:30:21;;;;;;;;;;;19.00;53.50;;;;;;5115095;28;19924;-65
2024/01/30 04:32:47;;;;;;;;;;;19.10;53.40;;;;;;5096092;28;19931;-65
2024/01/30 04:35:12;;;;;;;;;;;19.10;53.50;;;;;;5114770;28;20007;-65
2024/01/30 04:37:38;;;;;;;;;;;19.10;53.50;;;;;;5114645;28;19963;-65
2024/01/30 04:40:03;;;;;;;;;;;19.10;53.40;;;;;;5113963;28;20411;-65
2024/01/30 04:42:29;;;;;;;;;;;19.10;53.40;;;;;;5096569;28;19924;-65
2024/01/30 04:44:54;;;;;;;;;;;19.10;53.40;;;;;;5096257;28;20363;-65
2024/01/30 04:47:20;;;;;;;;;;;19.20;53.50;;;;;;5108805;28;19989;-65
2024/01/30 04:49:45;;;;;;;;;;;19.20;53.50;;;;;;5076422;28;19923;-65
2024/01/30 04:52:11;;;;;;;;;;;19.20;53.50;;;;;;5093831;28;19932;-65
2024/01/30 04:54:36;;;;;;;;;;;19.20;53.40;;;;;;5075426;28;19973;-65
2024/01/30 04:57:02;;;;;;;;;;;19.20;53.40;;;;;;5076105;28;19928;-65
2024/01/30 04:59:27;;;;;;;;;;;19.30;53.50;;;;;;5076048;28;20295;-64
2024/01/30 05:01:53;;;;;;;;;;;19.30;53.40;;;;;;5081510;28;19931;-64
2024/01/30 05:04:18;;;;;;;;;;;19.30;53.40;;;;;;5109552;28;19928;-64
2024/01/30 05:06:44;;;;;;;;;;;19.30;53.40;;;;;;5095528;28;19930;-64
2024/01/30 05:09:09;;;;;;;;;;;19.30;53.40;;;;;;5113306;28;19924;-64
2024/01/30 05:11:38;;;;;;;;;;;19.30;53.40;;;;;;5096196;28;20026;-64
2024/01/30 05:14:04;;;;;;;;;;;19.30;53.40;;;;;;5096063;28;19976;-64
2024/01/30 05:16:30;;;;;;;;;;;19.40;53.40;;;;;;5095342;28;19928;-64
2024/01/30 05:18:55;;;;;;;;;;;19.40;53.40;;;;;;5114110;28;19924;-65
2024/01/30 05:21:21;;;;;;;;;;;19.40;53.40;;;;;;5095297;28;19934;-65
2024/01/30 05:23:46;;;;;;;;;;;19.40;53.40;;;;;;5114304;28;19924;-65
2024/01/30 05:26:12;;;;;;;;;;;19.40;53.30;;;;;;5096588;28;20303;-65
2024/01/30 05:28:37;;;;;;;;;;;19.40;53.40;;;;;;5112957;28;19931;-65
2024/01/30 05:31:03;;;;;;;;;;;19.50;53.40;;;;;;5095406;28;20438;-65
2024/01/30 05:33:28;;;;;;;;;;;19.50;53.40;;;;;;5085130;28;19977;-64
2024/01/30 05:35:54;;;;;;;;;;;19.50;53.40;;;;;;5097492;28;19924;-64
2024/01/30 05:38:19;;;;;;;;;;;19.50;53.40;;;;;;5094220;28;20394;-64
2024/01/30 05:40:45;;;;;;;;;;;19.50;53.30;;;;;;5114066;28;19970;-64
2024/01/30 05:43:11;;;;;;;;;;;19.50;53.30;;;;;;5094571;28;19927;-64
2024/01/30 05:45:36;;;;;;;;;;;19.50;53.30;;;;;;5113784;28;19924;-64
2024/01/30 05:48:02;;;;;;;;;;;19.50;53.30;;;;;;5087646;28;19967;-64
2024/01/30 05:50:27;;;;;;;;;;;19.60;53.30;;;;;;5074880;28;19947;-64
2024/01/30 05:52:53;;;;;;;;;;;19.60;53.30;;;;;;5075117;28;19924;-65
2024/01/30 05:55:18;;;;;;;;;;;19.50;53.30;;;;;;5093360;28;20296;-65
2024/01/30 05:57:44;;;;;;;;;;;19.50;53.30;;;;;;5074387;28;19931;-65
2024/01/30 06:00:10;;;;;;;;;;;19.60;53.30;;;;;;5093103;28;19924;-65
2024/01/30 06:02:35;;;;;;;;;;;19.60;53.30;;;;;;5108398;28;20011;-64
2024/01/30 06:05:01;;;;;;;;;;;19.60;53.30;;;;;;5108141;28;20014;-64
2024/01/30 06:07:26;;;;;;;;;;;19.60;53.30;;;;;;5074955;28;19931;-64
2024/01/30 06:09:52;;;;;;;;;;;19.60;53.30;;;;;;5074960;28;19984;-65
2024/01/30 06:12:17;;;;;;;;;;;19.60;53.30;;;;;;5081586;28;19931;-65
2024/01/30 06:14:43;;;;;;;;;;;19.60;53.30;;;;;;5095518;28;19928;-65
2024/01/30 06:17:08;;;;;;;;;;;19.60;53.30;;;;;;5113362;28;20019;-65
2024/01/30 06:19:34;;;;;;;;;;;19.70;53.30;;;;;;5093420;28;19927;-65
2024/01/30 06:21:59;;;;;;;;;;;19.70;53.30;;;;;;5083135;28;19973;-65
2024/01/30 06:24:25;;;;;;;;;;;19.70;53.30;;;;;;5074683;28;19956;-65
2024/01/30 06:26:50;;;;;;;;;;;19.70;53.30;;;;;;5090434;28;19935;-65
2024/01/30 06:29:16;;;;;;;;;;;19.70;53.30;;;;;;5094808;28;20018;-65
2024/01/30 06:31:42;;;;;;;;;;;19.70;53.30;;;;;;5112614;28;19924;-65
2024/01/30 06:34:08;;;;;;;;;;;19.70;53.30;;;;;;5113025;28;20305;-65
2024/01/30 06:36:34;;;;;;;;;;;19.70;53.30;;;;;;5112952;28;19931;-65
2024/01/30 06:38:59;;;;;;;;;;;19.70;53.30;;;;;;5094003;28;19924;-65
2024/01/30 06:41:25;;;;;;;;;;;19.70;53.30;;;;;;5095275;28;20007;-67
2024/01/30 06:43:50;;;;;;;;;;;19.70;53.30;;;;;;5093552;28;19924;-64
2024/01/30 06:46:16;;;;;;;;;;;19.70;53.30;;;;;;5087046;28;19980;-65
2024/01/30 06:48:44;;;;;;;;;;;19.70;53.30;;;;;;5094932;28;19927;-65
2024/01/30 06:51:10;;;;;;;;;;;19.70;53.30;;;;;;5112690;28;20287;-65
2024/01/30 06:53:36;;;;;;;;;;;19.80;53.40;;;;;;5093106;28;20386;-65
2024/01/30 06:56:01;;;;;;;;;;;19.80;53.40;;;;;;5094487;28;19927;-65
2024/01/30 06:58:26;;;;;;;;;;;19.70;53.30;;;;;;5092989;28;19923;-65
2024/01/30 07:00:52;;;;;;;;;;;19.80;53.30;;;;;;5087234;28;19924;-65
2024/01/30 07:03:17;;;;;;;;;;;19.80;53.40;;;;;;5074649;28;19927;-64
2024/01/30 07:05:43;;;;;;;;;;;19.80;53.40;;;;;;5074930;28;19924;-65
2024/01/30 07:08:08;;;;;;;;;;;19.80;53.40;;;;;;5073769;28;20358;-65
2024/01/30 07:10:34;;;;;;;;;;;19.80;53.40;;;;;;5092908;28;20413;-65
2024/01/30 07:13:04;;;;;;;;;;;19.80;53.40;;;;;;5092390;28;19931;-65
2024/01/30 07:15:29;;;;;;;;;;;19.80;53.40;;;;;;5110659;28;20015;-65
2024/01/30 07:17:55;;;;;;;;;;;19.80;53.40;;;;;;5096230;28;19956;-65
2024/01/30 07:20:20;;;;;;;;;;;19.80;53.50;;;;;;5096118;28;20338;-64
2024/01/30 07:22:46;;;;;;;;;;;19.80;53.40;;;;;;5095223;28;20022;-64
2024/01/30 07:25:11;;;;;;;;;;;19.90;53.50;;;;;;5095646;28;19924;-62
2024/01/30 07:27:37;;;;;;;;;;;19.80;53.50;;;;;;5078001;28;19924;-65
2024/01/30 07:30:02;;;;;;;;;;;19.90;54.30;;;;;;5095066;28;19924;-66
2024/01/30 07:32:28;;;;;;;;;;;19.90;53.70;;;;;;5096487;28;20410;-64
2024/01/30 07:34:53;;;;;;;;;;;19.90;53.80;;;;;;5115935;28;20295;-62
2024/01/30 07:37:19;;;;;;;;;;;19.90;53.90;;;;;;5115084;28;19923;-65
2024/01/30 07:39:45;;;;;;;;;;;19.90;54.10;;;;;;5097720;28;20371;-62
2024/01/30 07:42:10;;;;;;;;;;;19.90;54.10;;;;;;5115259;28;19924;-63
2024/01/30 07:44:36;;;;;;;;;;;19.90;54.10;;;;;;5097828;28;19955;-63
2024/01/30 07:47:02;;;;;;;;;;;19.90;54.20;;;;;;5097826;28;19963;-64
2024/01/30 07:49:28;;;;;;;;;;;19.90;54.20;;;;;;5115397;28;19931;-64
2024/01/30 07:51:53;;;;;;;;;;;19.90;54.20;;;;;;5115702;28;19927;-62
2024/01/30 07:54:19;;;;;;;;;;;20.00;54.40;;;;;;5115587;28;19977;-63
2024/01/30 07:56:44;;;;;;;;;;;20.00;54.30;;;;;;5114205;28;19924;-65
2024/01/30 07:59:11;;;;;;;;;;;20.00;54.30;;;;;;5114908;28;19931;-64
2024/01/30 08:01:36;;;;;;;;;;;20.00;54.30;;;;;;5097587;28;20030;-63
2024/01/30 08:04:02;;;;;;;;;;;20.00;54.30;;;;;;5114638;28;20527;-64
2024/01/30 08:06:27;;;;;;;;;;;20.00;54.30;;;;;;5115874;28;19931;-64
2024/01/30 08:08:53;;;;;;;;;;;20.00;54.30;;;;;;5115361;28;20356;-66
2024/01/30 08:11:25;;;;;;;;;;;20.00;54.50;;;;;;5096520;28;19969;-63
2024/01/30 08:13:53;;;;;;;;;;;20.00;54.70;;;;;;5115640;28;19931;-62
2024/01/30 08:16:18;;;;;;;;;;;20.00;54.50;;;;;;5097259;28;19923;-63
2024/01/30 08:18:44;;;;;;;;;;;20.00;54.50;;;;;;5114320;28;19924;-62
2024/01/30 08:21:09;;;;;;;;;;;20.10;54.50;;;;;;5115268;28;20014;-66
2024/01/30 08:23:35;;;;;;;;;;;20.10;54.50;;;;;;5115086;28;19930;-67
2024/01/30 08:26:00;;;;;;;;;;;20.00;54.40;;;;;;5095862;28;20416;-67
2024/01/30 08:28:26;;;;;;;;;;;20.00;55.20;;;;;;5115393;28;19930;-65
2024/01/30 08:30:52;;;;;;;;;;;20.10;54.70;;;;;;5115016;28;19931;-68
2024/01/30 08:33:17;;;;;;;;;;;20.10;54.80;;;;;;5096250;28;19989;-65
2024/01/30 08:35:43;;;;;;;;;;;20.10;54.80;;;;;;5115209;28;19930;-65
2024/01/30 08:38:08;;;;;;;;;;;20.10;54.70;;;;;;5096041;28;20333;-65
2024/01/30 08:40:34;;;;;;;;;;;20.10;54.60;;;;;;5096135;28;19924;-65
2024/01/30 08:43:00;;;;;;;;;;;20.10;54.60;;;;;;5114797;28;19923;-65
2024/01/30 08:45:25;;;;;;;;;;;20.10;54.60;;;;;;5114313;28;19923;-65
2024/01/30 08:47:51;;;;;;;;;;;20.10;55.30;;;;;;5096917;28;19928;-65
2024/01/30 08:50:16;;;;;;;;;;;20.20;54.70;;;;;;5096891;28;19924;-65
2024/01/30 08:52:42;;;;;;;;;;;20.10;54.70;;;;;;5113904;28;20293;-65
2024/01/30 08:55:07;;;;;;;;;;;20.10;54.70;;;;;;5111808;28;20283;-64
2024/01/30 08:57:33;;;;;;;;;;;20.20;54.70;;;;;;5100988;28;19959;-65
2024/01/30 08:59:59;;;;;;;;;;;20.20;54.60;;;;;;5085679;28;19931;-64
2024/01/30 09:02:24;;;;;;;;;;;20.20;54.60;;;;;;5110437;27;20009;-65
2024/01/30 09:04:50;;;;;;;;;;;20.20;54.60;;;;;;5106723;27;19919;-65
2024/01/30 09:07:15;;;;;;;;;;;20.20;54.60;;;;;;5104005;27;19930;-63
2024/01/30 09:09:41;;;;;;;;;;;20.20;54.60;;;;;;5125318;27;20375;-63
2024/01/30 09:12:09;;;;;;;;;;;20.20;54.60;;;;;;5105104;27;19920;-64
2024/01/30 09:14:35;;;;;;;;;;;20.10;54.50;;;;;;5104595;27;19976;-64
2024/01/30 09:17:01;;;;;;;;;;;20.20;54.60;;;;;;5106809;27;19945;-63
2024/01/30 09:19:26;;;;;;;;;;;20.20;54.50;;;;;;5122108;27;19931;-63
2024/01/30 09:21:52;;;;;;;;;;;20.10;54.50;;;;;;5122877;27;19927;-63
2024/01/30 09:24:17;;;;;;;;;;;20.10;54.50;;;;;;5106854;27;19920;-64
2024/01/30 09:26:43;;;;;;;;;;;20.20;54.50;;;;;;5123078;27;20359;-63
2024/01/30 09:29:08;;;;;;;;;;;20.20;54.50;;;;;;5094771;28;20022;-64
2024/01/30 09:31:33;;;;;;;;;;;20.20;54.50;;;;;;5095830;28;19924;-63
2024/01/30 09:33:59;;;;;;;;;;;20.10;54.50;;;;;;5095761;28;19923;-63
2024/01/30 09:36:24;;;;;;;;;;;20.20;54.50;;;;;;5112755;28;20290;-64
2024/01/30 09:38:50;;;;;;;;;;;20.10;54.50;;;;;;5094794;28;20328;-64
2024/01/30 09:41:15;;;;;;;;;;;20.20;54.60;;;;;;5094898;28;19970;-64
2024/01/30 09:43:41;;;;;;;;;;;20.20;54.70;;;;;;5094730;28;19947;-64
2024/01/30 09:46:08;;;;;;;;;;;20.20;54.60;;;;;;5094883;28;19924;-64
2024/01/30 09:48:33;;;;;;;;;;;20.10;54.70;;;;;;5094258;28;20318;-64
2024/01/30 09:50:59;;;;;;;;;;;20.10;54.70;;;;;;5080761;27;19928;-64
2024/01/30 09:53:24;;;;;;;;;;;20.10;54.70;;;;;;5100054;28;19932;-64
2024/01/30 09:55:50;;;;;;;;;;;20.20;54.80;;;;;;5112717;28;19927;-63
2024/01/30 09:58:16;;;;;;;;;;;20.10;54.80;;;;;;5120635;27;19930;-64
2024/01/30 10:00:41;;;;;;;;;;;20.10;54.80;;;;;;5113258;28;19928;-64
2024/01/30 10:03:07;;;;;;;;;;;20.20;54.90;;;;;;5112307;28;19930;-64
2024/01/30 10:05:34;;;;;;;;;;;20.10;54.90;;;;;;5112538;28;19924;-64
2024/01/30 10:07:59;;;;;;;;;;;20.10;54.90;;;;;;5111908;28;19931;-63
2024/01/30 10:10:25;;;;;;;;;;;20.10;55.00;;;;;;5112959;28;19928;-63
2024/01/30 10:12:50;;;;;;;;;;;20.10;54.90;;;;;;5113801;28;19969;-63
2024/01/30 10:15:17;;;;;;;;;;;20.10;54.90;;;;;;5095019;28;19931;-63
2024/01/30 10:17:43;;;;;;;;;;;20.10;54.90;;;;;;5112715;28;19928;-63
2024/01/30 10:20:09;;;;;;;;;;;20.10;54.90;;;;;;5113114;28;19931;-63
2024/01/30 10:22:35;;;;;;;;;;;20.10;54.80;;;;;;5113339;28;19924;-64
2024/01/30 10:25:00;;;;;;;;;;;20.10;54.80;;;;;;5076640;28;19924;-64
2024/01/30 10:27:26;;;;;;;;;;;20.10;54.80;;;;;;5094990;28;20471;-64
2024/01/30 10:29:52;;;;;;;;;;;20.10;54.90;;;;;;5129022;28;19959;-63
2024/01/30 10:32:17;;;;;;;;;;;20.00;54.80;;;;;;5112721;28;19962;-64
2024/01/30 10:34:43;;;;;;;;;;;20.00;54.80;;;;;;5113531;28;19928;-64
2024/01/30 10:37:12;;;;;;;;;;;20.00;54.80;;;;;;5112881;28;19924;-64
2024/01/30 10:39:38;;;;;;;;;;;20.00;54.80;;;;;;5112797;28;19925;-64
2024/01/30 10:42:05;;;;;;;;;;;20.00;54.80;;;;;;5113064;28;19931;-64
2024/01/30 10:44:33;;;;;;;;;;;20.00;54.70;;;;;;5112755;28;19924;-64
2024/01/30 10:47:00;;;;;;;;;;;20.00;54.90;;;;;;5094065;28;19931;-64
2024/01/30 10:49:26;;;;;;;;;;;20.00;55.10;;;;;;5097983;28;19931;-64
2024/01/30 10:51:51;;;;;;;;;;;20.00;55.10;;;;;;5116715;28;20077;-63
2024/01/30 10:54:17;;;;;;;;;;;20.00;55.20;;;;;;5098418;28;19959;-64
2024/01/30 10:56:43;;;;;;;;;;;20.00;55.20;;;;;;5115843;28;19924;-64
2024/01/30 10:59:08;;;;;;;;;;;20.00;55.10;;;;;;5097733;28;19924;-64
2024/01/30 11:01:33;;;;;;;;;;;20.00;55.10;;;;;;5081787;28;20397;-63
2024/01/30 11:03:59;;;;;;;;;;;20.00;55.10;;;;;;5081279;28;19924;-64
2024/01/30 11:06:25;;;;;;;;;;;20.00;55.10;;;;;;5097177;28;19930;-63
2024/01/30 11:09:00;;;;;;;;;;;20.00;55.10;;;;;;5098495;28;19924;-64
2024/01/30 11:11:25;;;;;;;;;;;20.00;55.10;;;;;;5113224;28;19924;-64
2024/01/30 11:13:51;;;;;;;;;;;20.00;55.10;;;;;;5097690;28;20435;-66
2024/01/30 11:16:16;;;;;;;;;;;20.00;55.20;;;;;;5080769;28;19971;-64
2024/01/30 11:18:42;;;;;;;;;;;20.00;55.40;;;;;;5099571;28;20328;-64
2024/01/30 11:21:07;;;;;;;;;;;19.90;55.30;;;;;;5094215;28;19931;-66
2024/01/30 11:23:33;;;;;;;;;;;19.90;55.40;;;;;;5077251;28;19932;-65
2024/01/30 11:25:59;;;;;;;;;;;20.00;55.80;;;;;;5077159;28;20018;-64
2024/01/30 11:28:24;;;;;;;;;;;20.00;55.90;;;;;;5076694;28;19928;-64
2024/01/30 11:30:52;;;;;;;;;;;20.00;55.80;;;;;;5095007;28;19947;-63
2024/01/30 11:33:29;;;;;;;;;;;20.00;56.10;;;;;;5078077;28;19924;-63
2024/01/30 11:35:56;;;;;;;;;;;19.90;55.90;;;;;;5094916;28;19931;-63
2024/01/30 11:38:22;;;;;;;;;;;19.90;56.20;;;;;;5095487;28;19924;-63
2024/01/30 11:40:47;;;;;;;;;;;20.00;56.60;;;;;;5077214;28;19931;-64
2024/01/30 11:43:13;;;;;;;;;;;19.90;56.30;;;;;;5094007;28;19946;-64
2024/01/30 11:45:39;;;;;;;;;;;19.90;56.20;;;;;;5076937;28;19971;-64
2024/01/30 11:48:04;;;;;;;;;;;20.00;56.40;;;;;;5110948;28;20291;-64
2024/01/30 11:50:30;;;;;;;;;;;19.90;56.20;;;;;;5095078;28;19924;-64
2024/01/30 11:52:56;;;;;;;;;;;19.90;56.40;;;;;;5097264;28;19928;-64
2024/01/30 11:55:22;;;;;;;;;;;19.90;56.60;;;;;;5114969;28;19928;-63
2024/01/30 11:57:48;;;;;;;;;;;19.90;56.50;;;;;;5115847;28;20383;-64
2024/01/30 12:00:14;;;;;;;;;;;19.90;56.50;;;;;;5095854;28;19924;-64
2024/01/30 12:02:40;;;;;;;;;;;19.90;56.50;;;;;;5114836;28;19923;-64
2024/01/30 12:05:06;;;;;;;;;;;19.90;56.60;;;;;;5070068;28;20016;-64
2024/01/30 12:07:31;;;;;;;;;;;19.90;56.70;;;;;;5084099;28;19935;-67
2024/01/30 12:09:57;;;;;;;;;;;19.90;56.70;;;;;;5095791;28;19924;-61
2024/01/30 12:12:23;;;;;;;;;;;19.90;56.90;;;;;;5096835;28;19934;-65
2024/01/30 12:14:48;;;;;;;;;;;19.90;57.10;;;;;;5076892;28;20310;-63
2024/01/30 12:17:23;;;;;;;;;;;19.90;57.90;;;;;;5066632;28;19924;-64
2024/01/30 12:19:48;;;;;;;;;;;19.90;57.20;;;;;;5077607;28;20368;-63
2024/01/30 12:22:14;;;;;;;;;;;19.90;57.30;;;;;;5096482;28;19926;-63
2024/01/30 12:24:39;;;;;;;;;;;19.90;57.40;;;;;;5079347;28;19924;-63
2024/01/30 12:27:05;;;;;;;;;;;19.90;57.40;;;;;;5079841;28;19923;-63
2024/01/30 12:29:33;;;;;;;;;;;19.90;57.40;;;;;;5096755;28;20018;-63
2024/01/30 12:31:59;;;;;;;;;;;19.90;57.40;;;;;;5114320;28;19985;-63
2024/01/30 12:34:25;;;;;;;;;;;19.90;57.50;;;;;;5115344;28;19924;-65
2024/01/30 12:36:50;;;;;;;;;;;19.90;57.50;;;;;;5096624;28;19925;-63
2024/01/30 12:39:16;;;;;;;;;;;19.90;57.50;;;;;;5113666;28;19997;-65
2024/01/30 12:41:42;;;;;;;;;;;19.90;57.50;;;;;;5096451;28;19982;-65
2024/01/30 12:44:07;;;;;;;;;;;20.00;57.70;;;;;;5096613;28;19924;-64
2024/01/30 12:46:34;;;;;;;;;;;19.90;57.60;;;;;;5079034;28;19970;-67
2024/01/30 12:48:59;;;;;;;;;;;20.00;57.70;;;;;;5114071;28;19924;-64
2024/01/30 12:51:25;;;;;;;;;;;20.00;57.60;;;;;;5095657;28;19931;-64
2024/01/30 12:53:50;;;;;;;;;;;20.00;57.70;;;;;;5095818;28;19924;-64
2024/01/30 12:56:16;;;;;;;;;;;20.00;57.70;;;;;;5096395;28;19924;-64
2024/01/30 12:58:42;;;;;;;;;;;20.00;57.70;;;;;;5095715;28;19949;-64
2024/01/30 13:01:08;;;;;;;;;;;20.00;57.60;;;;;;5114512;28;20383;-64
2024/01/30 13:03:34;;;;;;;;;;;20.00;57.60;;;;;;5096394;28;19924;-64
2024/01/30 13:05:59;;;;;;;;;;;20.00;57.60;;;;;;5095486;28;19924;-64
2024/01/30 13:08:25;;;;;;;;;;;20.10;57.70;;;;;;5096228;28;20366;-63
2024/01/30 13:10:50;;;;;;;;;;;20.10;57.60;;;;;;5096178;28;19924;-64
2024/01/30 13:13:15;;;;;;;;;;;20.10;57.60;;;;;;5107820;28;19932;-63
2024/01/30 13:15:41;;;;;;;;;;;20.10;57.40;;;;;;5096358;28;19923;-63
2024/01/30 13:18:06;;;;;;;;;;;20.10;57.60;;;;;;5113786;28;19977;-63
2024/01/30 13:20:32;;;;;;;;;;;20.10;57.60;;;;;;5113577;28;20063;-63
2024/01/30 13:22:57;;;;;;;;;;;20.10;57.70;;;;;;5113487;28;20007;-63
2024/01/30 13:25:23;;;;;;;;;;;20.10;57.70;;;;;;5114305;28;20256;-62
2024/01/30 13:27:48;;;;;;;;;;;20.20;57.70;;;;;;5095030;28;19924;-62
2024/01/30 13:30:14;;;;;;;;;;;20.20;57.70;;;;;;5113918;28;19930;-63
2024/01/30 13:32:41;;;;;;;;;;;20.20;57.60;;;;;;5113606;28;19969;-63
2024/01/30 13:35:06;;;;;;;;;;;20.20;57.60;;;;;;5113059;28;19924;-62
2024/01/30 13:37:32;;;;;;;;;;;20.20;57.60;;;;;;5095348;28;20367;-62
2024/01/30 13:39:57;;;;;;;;;;;20.20;57.60;;;;;;5094987;28;20325;-63
2024/01/30 13:42:25;;;;;;;;;;;20.20;57.40;;;;;;5094588;28;20492;-64
2024/01/30 13:44:50;;;;;;;;;;;20.20;57.40;;;;;;5095315;28;19959;-63
2024/01/30 13:47:16;;;;;;;;;;;20.20;57.00;;;;;;5113646;28;19945;-62
2024/01/30 13:49:41;;;;;;;;;;;20.20;56.90;;;;;;5112800;28;20005;-64
2024/01/30 13:52:07;;;;;;;;;;;20.20;56.90;;;;;;5106256;28;19928;-63
2024/01/30 13:54:33;;;;;;;;;;;20.20;57.10;;;;;;5094286;28;20375;-63
2024/01/30 13:56:59;;;;;;;;;;;20.30;57.20;;;;;;5112657;28;19982;-64
2024/01/30 13:59:25;;;;;;;;;;;20.30;57.20;;;;;;5095483;28;19923;-64
2024/01/30 14:01:51;;;;;;;;;;;20.30;57.30;;;;;;5094927;28;19924;-64
2024/01/30 14:04:16;;;;;;;;;;;20.30;57.20;;;;;;5095309;28;19969;-63
2024/01/30 14:06:42;;;;;;;;;;;20.30;57.20;;;;;;5095036;28;20294;-64